Time;durP1;ratioP1;P1;durP2;ratioP2;P2;SDS_P1;SDS_P2;PMS_P1;PMS_P2;Temp;Humidity;BMP_temperature;BMP_pressure;BME280_temperature;BME280_humidity;BME280_pressure;Samples;Min_cycle;Max_cycle;Signal;HPM_P1;HPM_P2
2024/03/13 00:01:33;;;;;;;27.07;21.50;;;10.70;1.00;;;;;;5108268;27;21134;-69
2024/03/13 00:04:00;;;;;;;26.03;21.50;;;10.70;1.00;;;;;;5105717;27;20462;-78
2024/03/13 00:06:28;;;;;;;25.20;21.47;;;10.70;1.00;;;;;;5087216;27;21185;-71
2024/03/13 00:08:56;;;;;;;24.63;20.07;;;10.70;1.00;;;;;;5084957;27;20470;-69
2024/03/13 00:11:25;;;;;;;24.63;20.87;;;10.70;1.00;;;;;;5093661;27;20899;-70
2024/03/13 00:13:55;;;;;;;25.63;21.63;;;10.70;1.00;;;;;;5092939;27;21024;-70
2024/03/13 00:16:21;;;;;;;23.80;21.00;;;10.60;1.00;;;;;;5088132;28;20451;-72
2024/03/13 00:18:48;;;;;;;23.47;20.30;;;10.60;1.00;;;;;;5090993;27;20519;-69
2024/03/13 00:21:16;;;;;;;28.17;22.20;;;10.70;1.00;;;;;;5091168;27;20450;-72
2024/03/13 00:23:43;;;;;;;24.70;20.10;;;10.60;1.00;;;;;;5108986;27;20454;-73
2024/03/13 00:26:12;;;;;;;25.50;20.27;;;10.60;1.00;;;;;;5089654;28;20461;-73
2024/03/13 00:28:40;;;;;;;25.63;21.30;;;10.60;1.00;;;;;;5087243;28;20489;-73
2024/03/13 00:31:08;;;;;;;28.27;20.40;;;10.60;1.00;;;;;;5087676;28;20450;-72
2024/03/13 00:33:37;;;;;;;23.83;20.30;;;10.70;1.00;;;;;;5088193;28;20836;-72
2024/03/13 00:36:06;;;;;;;24.27;19.70;;;10.70;1.00;;;;;;5088378;28;21230;-73
2024/03/13 00:38:33;;;;;;;25.45;20.45;;;10.70;1.00;;;;;;5084831;28;20451;-74
2024/03/13 00:41:00;;;;;;;23.73;20.23;;;10.60;1.00;;;;;;5086880;28;20504;-73
2024/03/13 00:43:29;;;;;;;25.53;20.67;;;10.70;1.00;;;;;;5089781;28;20997;-74
2024/03/13 00:45:59;;;;;;;23.17;19.83;;;10.70;1.00;;;;;;5108479;27;20465;-72
2024/03/13 00:48:31;;;;;;;25.83;21.17;;;10.70;1.00;;;;;;5089321;28;20474;-73
2024/03/13 00:51:00;;;;;;;25.03;21.17;;;10.70;1.00;;;;;;5105040;27;20473;-73
2024/03/13 00:53:27;;;;;;;24.27;20.53;;;10.70;1.00;;;;;;5091177;27;20459;-73
2024/03/13 00:55:55;;;;;;;24.40;20.97;;;10.70;1.00;;;;;;5086904;28;20920;-73
2024/03/13 00:58:22;;;;;;;24.00;20.80;;;10.70;1.00;;;;;;5102263;27;20534;-73
2024/03/13 01:00:52;;;;;;;22.10;18.57;;;10.80;1.00;;;;;;5092095;27;20466;-73
2024/03/13 01:03:22;;;;;;;25.60;20.77;;;10.80;1.00;;;;;;5087604;28;20477;-74
2024/03/13 01:05:49;;;;;;;25.03;20.07;;;10.80;1.00;;;;;;5084181;28;20491;-73
2024/03/13 01:08:17;;;;;;;24.40;19.50;;;10.90;1.00;;;;;;5086743;28;20497;-72
2024/03/13 01:10:44;;;;;;;26.20;21.33;;;10.90;1.00;;;;;;5086390;28;20490;-73
2024/03/13 01:13:11;;;;;;;25.90;19.87;;;10.90;1.00;;;;;;5085680;27;21286;-73
2024/03/13 01:15:38;;;;;;;27.10;21.30;;;11.00;1.00;;;;;;5086412;28;20997;-73
2024/03/13 01:18:08;;;;;;;23.33;19.03;;;11.00;1.00;;;;;;5088649;28;21079;-73
2024/03/13 01:20:36;;;;;;;24.97;21.07;;;11.00;1.00;;;;;;5081181;28;20453;-73
2024/03/13 01:23:03;;;;;;;25.13;21.60;;;11.00;1.00;;;;;;5089567;27;20558;-73
2024/03/13 01:25:30;;;;;;;23.90;18.93;;;11.00;1.00;;;;;;5098631;27;20477;-74
2024/03/13 01:27:56;;;;;;;24.30;19.70;;;11.00;1.00;;;;;;5084766;27;21686;-74
2024/03/13 01:30:23;;;;;;;24.47;20.03;;;11.00;1.00;;;;;;5087098;28;20544;-75
2024/03/13 01:32:51;;;;;;;22.73;19.77;;;11.00;1.00;;;;;;5083716;28;20553;-73
2024/03/13 01:35:19;;;;;;;24.27;19.17;;;10.90;1.00;;;;;;5086050;28;20493;-74
2024/03/13 01:37:58;;;;;;;23.67;19.20;;;10.90;1.00;;;;;;5087053;28;20647;-70
2024/03/13 01:54:50;;;;;;;23.73;19.10;;;10.80;1.00;;;;;;5090689;28;20994;-70
2024/03/13 01:55:10;;;;;;;22.67;18.87;;;10.70;1.00;;;;;;5084801;28;20522;-69
2024/03/13 01:57:56;;;;;;;19.80;17.70;;;10.70;1.00;;;;;;5087267;28;20455;-69
2024/03/13 02:03:09;;;;;;;23.60;19.00;;;10.70;1.00;;;;;;5107134;27;20447;-70
2024/03/13 02:05:36;;;;;;;22.27;17.43;;;10.70;1.00;;;;;;5106289;27;20509;-71
2024/03/13 02:08:06;;;;;;;24.07;18.73;;;10.70;1.00;;;;;;5098724;27;20455;-71
2024/03/13 02:10:33;;;;;;;29.03;19.00;;;10.70;1.00;;;;;;5089328;27;20516;-70
2024/03/13 02:13:09;;;;;;;22.20;18.43;;;10.60;1.00;;;;;;5093690;27;20514;-70
2024/03/13 02:15:36;;;;;;;21.50;17.70;;;10.60;1.00;;;;;;5085332;27;20885;-71
2024/03/13 02:18:14;;;;;;;21.13;17.70;;;10.60;1.00;;;;;;5083950;28;20451;-73
2024/03/13 02:20:43;;;;;;;24.63;19.73;;;10.60;1.00;;;;;;5083197;27;20479;-71
2024/03/13 02:23:12;;;;;;;23.00;18.90;;;10.60;1.00;;;;;;5107030;27;20457;-72
2024/03/13 02:25:39;;;;;;;23.07;17.80;;;10.70;1.00;;;;;;5090887;27;21001;-71
2024/03/13 02:28:07;;;;;;;20.60;17.60;;;10.60;1.00;;;;;;5067628;28;20450;-71
2024/03/13 02:30:34;;;;;;;22.17;17.83;;;10.60;1.00;;;;;;5066003;28;20481;-73
2024/03/13 02:33:01;;;;;;;22.30;16.57;;;10.70;1.00;;;;;;5065460;28;20569;-74
2024/03/13 02:35:28;;;;;;;22.83;17.27;;;10.60;1.00;;;;;;5062932;28;20556;-72
2024/03/13 02:37:55;;;;;;;20.77;16.43;;;10.60;1.00;;;;;;5056309;27;21063;-74
2024/03/13 02:40:23;;;;;;;24.27;18.23;;;10.60;1.00;;;;;;5072017;27;20493;-69
2024/03/13 02:42:52;;;;;;;25.57;18.63;;;10.60;1.00;;;;;;5074274;27;20640;-70
2024/03/13 02:45:19;;;;;;;23.90;17.20;;;10.60;1.00;;;;;;5039270;28;20457;-71
2024/03/13 02:47:46;;;;;;;20.27;17.07;;;10.60;1.00;;;;;;5068574;28;21288;-72
2024/03/13 02:50:14;;;;;;;21.40;16.80;;;10.60;1.00;;;;;;5068697;28;20462;-71
2024/03/13 02:52:40;;;;;;;24.47;18.27;;;10.60;1.00;;;;;;5071421;28;20462;-72
2024/03/13 02:55:10;;;;;;;22.97;17.40;;;10.60;1.00;;;;;;5073479;27;20446;-70
2024/03/13 02:57:37;;;;;;;29.03;18.47;;;10.70;1.00;;;;;;5061451;28;20508;-73
2024/03/13 03:00:06;;;;;;;21.70;17.70;;;10.70;1.00;;;;;;5060570;28;20890;-70
2024/03/13 03:02:33;;;;;;;25.47;18.63;;;10.70;1.00;;;;;;5056235;28;20446;-71
2024/03/13 03:05:00;;;;;;;21.27;17.43;;;10.70;1.00;;;;;;5055365;28;20463;-74
2024/03/13 03:07:27;;;;;;;24.60;19.57;;;10.80;1.00;;;;;;5068896;27;20547;-71
2024/03/13 03:09:56;;;;;;;23.80;18.57;;;10.80;1.00;;;;;;5067034;28;20471;-70
2024/03/13 03:12:23;;;;;;;20.00;17.20;;;10.80;1.00;;;;;;5064079;28;20534;-69
2024/03/13 03:14:50;;;;;;;22.30;17.20;;;10.80;1.00;;;;;;5064733;28;20466;-72
2024/03/13 03:17:18;;;;;;;25.60;18.27;;;10.70;1.00;;;;;;5069110;28;20478;-70
2024/03/13 03:19:45;;;;;;;26.40;19.00;;;10.60;1.00;;;;;;5070164;27;20483;-70
2024/03/13 03:22:12;;;;;;;24.80;18.50;;;10.60;1.00;;;;;;5065147;28;20451;-73
2024/03/13 03:24:39;;;;;;;24.17;19.50;;;10.60;1.00;;;;;;5076005;27;20517;-71
2024/03/13 03:27:06;;;;;;;23.70;19.30;;;10.50;1.00;;;;;;5052473;28;20530;-70
2024/03/13 03:29:33;;;;;;;24.03;18.80;;;10.60;1.00;;;;;;5061642;28;20556;-69
2024/03/13 03:32:00;;;;;;;28.37;22.00;;;10.40;1.00;;;;;;5069639;27;20485;-70
2024/03/13 03:34:27;;;;;;;27.23;20.10;;;10.40;1.00;;;;;;5067668;28;20541;-70
2024/03/13 03:36:55;;;;;;;33.60;26.10;;;10.30;1.00;;;;;;5053285;28;20475;-70
2024/03/13 03:39:25;;;;;;;29.27;20.87;;;10.20;1.00;;;;;;5058352;28;20467;-70
2024/03/13 03:41:56;;;;;;;27.07;21.97;;;10.20;1.00;;;;;;5064062;28;20463;-71
2024/03/13 03:44:23;;;;;;;25.27;20.30;;;10.20;1.00;;;;;;5068909;28;21099;-70
2024/03/13 03:46:50;;;;;;;25.20;21.93;;;10.20;1.00;;;;;;5073678;27;20555;-71
2024/03/13 03:49:16;;;;;;;30.90;23.60;;;10.20;1.00;;;;;;5070013;28;20554;-70
2024/03/13 03:51:44;;;;;;;33.90;25.97;;;10.20;1.00;;;;;;5061998;28;20461;-71
2024/03/13 03:54:11;;;;;;;29.07;23.10;;;10.10;1.00;;;;;;5065737;28;20842;-73
2024/03/13 03:56:39;;;;;;;30.50;23.03;;;10.10;1.00;;;;;;5070812;27;20499;-73
2024/03/13 03:59:07;;;;;;;26.40;22.53;;;10.10;1.00;;;;;;5056492;28;20461;-73
2024/03/13 04:01:36;;;;;;;32.07;23.00;;;10.10;1.00;;;;;;5053148;28;21806;-74
2024/03/13 04:04:04;;;;;;;26.17;23.00;;;10.00;1.00;;;;;;5066937;28;20583;-74
2024/03/13 04:06:30;;;;;;;29.00;22.77;;;9.90;1.00;;;;;;5069101;28;20538;-76
2024/03/13 04:08:57;;;;;;;23.83;20.40;;;9.80;1.00;;;;;;5070399;27;21016;-73
2024/03/13 04:11:24;;;;;;;28.53;22.93;;;9.70;1.00;;;;;;5059853;28;21235;-73
2024/03/13 04:13:51;;;;;;;28.97;23.70;;;9.70;1.00;;;;;;5084646;27;20456;-73
2024/03/13 04:16:20;;;;;;;29.93;22.20;;;9.60;1.00;;;;;;5065364;28;20513;-73
2024/03/13 04:18:47;;;;;;;31.37;22.10;;;9.50;1.00;;;;;;5062885;28;20471;-73
2024/03/13 04:21:14;;;;;;;28.97;23.30;;;9.40;1.00;;;;;;5064882;28;21754;-73
2024/03/13 04:23:44;;;;;;;27.60;21.83;;;9.40;1.00;;;;;;5052361;28;20484;-73
2024/03/13 04:26:12;;;;;;;31.70;23.10;;;9.40;1.00;;;;;;5067775;28;20479;-73
2024/03/13 04:28:43;;;;;;;28.60;22.80;;;9.40;1.00;;;;;;5065016;28;20501;-74
2024/03/13 04:31:13;;;;;;;32.10;24.83;;;9.40;1.00;;;;;;5067194;28;20462;-73
2024/03/13 04:33:40;;;;;;;30.77;23.33;;;9.30;1.00;;;;;;5062129;28;20478;-73
2024/03/13 04:36:07;;;;;;;28.03;21.97;;;9.10;1.00;;;;;;5069511;28;20541;-73
2024/03/13 04:38:34;;;;;;;29.93;22.57;;;9.10;1.00;;;;;;5067760;28;20553;-73
2024/03/13 04:41:01;;;;;;;28.40;23.57;;;9.00;1.00;;;;;;5061323;28;20508;-73
2024/03/13 04:43:28;;;;;;;34.53;23.83;;;9.00;1.00;;;;;;5063137;28;20459;-74
2024/03/13 04:45:56;;;;;;;33.53;24.13;;;8.90;1.00;;;;;;5065121;28;20501;-75
2024/03/13 04:48:23;;;;;;;32.00;24.30;;;8.90;1.00;;;;;;5064603;28;20541;-73
2024/03/13 04:50:49;;;;;;;30.90;23.93;;;8.80;1.00;;;;;;5084009;27;20831;-73
2024/03/13 04:53:19;;;;;;;34.70;25.30;;;8.80;1.00;;;;;;5065763;27;20538;-73
2024/03/13 04:55:48;;;;;;;35.43;25.20;;;8.80;1.00;;;;;;5077687;27;21178;-72
2024/03/13 04:58:15;;;;;;;33.90;26.43;;;8.70;1.00;;;;;;5069948;28;20478;-73
2024/03/13 05:00:42;;;;;;;29.90;24.03;;;8.60;1.00;;;;;;5063200;27;20461;-73
2024/03/13 05:03:09;;;;;;;34.93;25.17;;;8.60;1.00;;;;;;5059845;28;20450;-73
2024/03/13 05:05:36;;;;;;;32.20;23.80;;;8.60;1.00;;;;;;5051470;28;20508;-70
2024/03/13 05:08:04;;;;;;;32.53;25.00;;;8.60;1.00;;;;;;5050414;28;21258;-71
2024/03/13 05:10:31;;;;;;;35.40;24.83;;;8.60;1.00;;;;;;5048935;28;20562;-72
2024/03/13 05:12:58;;;;;;;37.37;26.10;;;8.50;1.00;;;;;;5026206;28;20547;-71
2024/03/13 05:15:26;;;;;;;36.90;26.07;;;8.50;1.00;;;;;;5027523;28;20465;-71
2024/03/13 05:17:53;;;;;;;31.87;24.50;;;8.40;1.00;;;;;;5032202;28;20567;-71
2024/03/13 05:20:21;;;;;;;32.73;25.47;;;8.30;1.00;;;;;;5063283;28;20429;-71
2024/03/13 05:22:50;;;;;;;39.57;26.77;;;8.20;1.00;;;;;;5026847;28;20507;-71
2024/03/13 05:25:22;;;;;;;35.60;26.30;;;8.10;1.00;;;;;;5043411;28;20498;-75
2024/03/13 05:27:49;;;;;;;30.80;25.40;;;8.00;1.00;;;;;;5035521;28;20459;-72
2024/03/13 05:30:16;;;;;;;33.20;25.73;;;7.90;1.00;;;;;;5036029;28;21330;-71
2024/03/13 05:32:43;;;;;;;30.87;23.07;;;7.90;1.00;;;;;;5031764;28;21235;-70
2024/03/13 05:35:12;;;;;;;37.60;26.37;;;7.90;1.00;;;;;;5046867;28;20543;-72
2024/03/13 05:37:40;;;;;;;37.43;25.67;;;8.00;1.00;;;;;;5036758;28;20497;-70
2024/03/13 05:40:16;;;;;;;34.00;24.50;;;7.90;1.00;;;;;;5048148;28;20441;-71
2024/03/13 05:42:43;;;;;;;35.83;25.17;;;7.90;1.00;;;;;;5056060;28;20465;-71
2024/03/13 05:45:11;;;;;;;34.80;26.37;;;7.90;1.00;;;;;;5036511;28;20483;-74
2024/03/13 05:47:38;;;;;;;33.00;25.23;;;7.90;1.00;;;;;;5036423;28;20476;-72
2024/03/13 05:50:05;;;;;;;37.00;26.73;;;8.00;1.00;;;;;;5027321;28;21169;-73
2024/03/13 05:52:34;;;;;;;40.03;28.17;;;8.10;1.00;;;;;;5037807;28;20558;-72
2024/03/13 05:55:02;;;;;;;40.90;27.93;;;8.10;1.00;;;;;;5037908;28;20460;-72
2024/03/13 05:57:29;;;;;;;34.90;26.13;;;8.00;1.00;;;;;;5042673;28;20523;-70
2024/03/13 05:59:57;;;;;;;37.70;27.23;;;8.10;1.00;;;;;;5034888;28;20459;-72
2024/03/13 06:02:24;;;;;;;34.67;25.20;;;8.10;1.00;;;;;;5028299;28;20457;-71
2024/03/13 06:05:02;;;;;;;35.07;25.20;;;8.10;1.00;;;;;;5025288;28;20968;-72
2024/03/13 06:07:29;;;;;;;69.63;35.77;;;8.10;1.00;;;;;;5045651;28;20490;-72
2024/03/13 06:09:56;;;;;;;39.50;26.20;;;8.10;1.00;;;;;;5046531;27;20573;-72
2024/03/13 06:12:23;;;;;;;35.90;24.60;;;8.20;1.00;;;;;;5067577;28;20465;-71
2024/03/13 06:14:52;;;;;;;40.20;26.73;;;8.20;1.00;;;;;;5049875;28;20588;-70
2024/03/13 06:17:19;;;;;;;34.23;25.27;;;8.20;1.00;;;;;;5055564;28;20498;-70
2024/03/13 06:19:47;;;;;;;37.40;25.90;;;8.20;1.00;;;;;;5049239;28;20512;-71
2024/03/13 06:22:14;;;;;;;33.60;25.30;;;8.30;1.00;;;;;;5056728;28;21219;-71
2024/03/13 06:24:42;;;;;;;41.93;25.63;;;8.30;1.00;;;;;;5055144;28;20501;-69
2024/03/13 06:27:15;;;;;;;37.40;26.93;;;8.40;1.00;;;;;;5051070;28;20548;-71
2024/03/13 06:29:57;;;;;;;39.43;26.80;;;8.40;1.00;;;;;;5055364;28;21299;-75
2024/03/13 06:32:24;;;;;;;40.27;25.90;;;8.50;1.00;;;;;;5064904;28;20474;-72
2024/03/13 06:34:52;;;;;;;35.40;26.07;;;8.60;1.00;;;;;;5067939;28;20422;-69
2024/03/13 06:37:20;;;;;;;41.10;27.10;;;8.70;1.00;;;;;;5065287;28;20903;-73
2024/03/13 06:39:47;;;;;;;35.93;26.90;;;8.70;1.00;;;;;;5063359;28;21299;-69
2024/03/13 06:42:17;;;;;;;41.57;26.30;;;8.80;1.00;;;;;;5067003;28;20462;-69
2024/03/13 06:44:44;;;;;;;37.87;27.23;;;8.90;1.00;;;;;;5063711;28;20960;-70
2024/03/13 06:47:12;;;;;;;38.00;28.10;;;9.00;1.00;;;;;;5065502;28;20449;-72
2024/03/13 06:49:39;;;;;;;39.20;26.90;;;9.10;1.00;;;;;;5061474;28;20605;-72
2024/03/13 06:52:07;;;;;;;39.90;28.20;;;9.20;1.00;;;;;;5069135;28;20458;-70
2024/03/13 06:54:36;;;;;;;37.47;28.53;;;9.30;1.00;;;;;;5068898;28;20832;-68
2024/03/13 06:57:03;;;;;;;37.63;27.20;;;9.40;1.00;;;;;;5064251;28;20496;-71
2024/03/13 06:59:30;;;;;;;36.00;27.07;;;9.50;1.00;;;;;;5051038;27;20454;-70
2024/03/13 07:02:00;;;;;;;40.63;27.50;;;9.60;1.00;;;;;;5066151;28;20834;-70
2024/03/13 07:04:27;;;;;;;39.37;26.43;;;9.60;1.00;;;;;;5068500;27;20462;-70
2024/03/13 07:06:57;;;;;;;52.00;31.60;;;9.70;1.00;;;;;;5053340;28;22477;-72
2024/03/13 07:09:25;;;;;;;43.70;29.27;;;9.70;1.00;;;;;;5049180;28;20454;-69
2024/03/13 07:11:53;;;;;;;38.70;27.20;;;9.70;1.00;;;;;;5063554;28;20565;-71
2024/03/13 07:14:20;;;;;;;40.77;28.30;;;9.80;1.00;;;;;;5065432;28;20568;-71
2024/03/13 07:16:48;;;;;;;36.10;27.77;;;9.90;1.00;;;;;;5051303;27;20455;-72
2024/03/13 07:19:15;;;;;;;37.17;27.67;;;10.00;1.00;;;;;;5067368;28;20522;-70
2024/03/13 07:21:42;;;;;;;41.13;27.43;;;10.20;1.00;;;;;;5061230;28;20601;-72
2024/03/13 07:24:12;;;;;;;40.53;30.50;;;10.30;1.00;;;;;;5061259;28;20500;-72
2024/03/13 07:26:41;;;;;;;38.73;27.90;;;10.40;1.00;;;;;;5062067;28;20469;-74
2024/03/13 07:29:09;;;;;;;35.03;26.73;;;10.40;1.00;;;;;;5063083;28;20439;-70
2024/03/13 07:31:37;;;;;;;42.33;30.17;;;10.50;1.00;;;;;;5074856;27;20463;-71
2024/03/13 07:34:05;;;;;;;39.43;28.47;;;10.60;1.00;;;;;;5067213;28;20991;-70
2024/03/13 07:36:33;;;;;;;38.83;28.20;;;10.70;1.00;;;;;;5056879;28;21021;-71
2024/03/13 07:39:03;;;;;;;39.60;28.07;;;10.80;1.00;;;;;;5055313;28;20487;-70
2024/03/13 07:41:30;;;;;;;41.60;29.20;;;10.80;1.00;;;;;;5067520;28;21011;-71
2024/03/13 07:43:57;;;;;;;40.33;28.90;;;10.90;1.00;;;;;;5069286;28;21209;-69
2024/03/13 07:46:25;;;;;;;35.03;26.73;;;11.00;1.00;;;;;;5074231;27;20477;-71
2024/03/13 07:48:52;;;;;;;36.50;28.77;;;11.10;1.00;;;;;;5072065;27;20470;-72
2024/03/13 07:51:19;;;;;;;40.73;27.83;;;11.10;1.00;;;;;;5064972;28;20487;-72
2024/03/13 07:53:47;;;;;;;42.57;27.97;;;11.30;1.00;;;;;;5037660;28;21032;-70
2024/03/13 07:56:15;;;;;;;33.10;26.30;;;11.30;1.00;;;;;;5050151;28;20573;-70
2024/03/13 07:58:42;;;;;;;35.07;26.73;;;11.30;1.00;;;;;;5055825;28;20459;-70
2024/03/13 08:01:10;;;;;;;34.87;28.30;;;11.40;1.00;;;;;;5045309;28;20630;-70
2024/03/13 08:03:37;;;;;;;40.93;28.03;;;11.50;1.00;;;;;;5045703;28;20463;-73
2024/03/13 08:06:04;;;;;;;39.00;29.27;;;11.50;1.00;;;;;;5043377;27;20990;-71
2024/03/13 08:08:31;;;;;;;38.20;25.93;;;11.60;1.00;;;;;;5072149;27;20974;-73
2024/03/13 08:10:59;;;;;;;34.13;25.80;;;11.60;1.00;;;;;;5067371;28;20459;-71
2024/03/13 08:13:26;;;;;;;33.93;26.23;;;11.80;1.00;;;;;;5060407;28;20559;-72
2024/03/13 08:15:54;;;;;;;37.93;28.23;;;11.90;1.00;;;;;;5059203;28;20564;-72
2024/03/13 08:18:22;;;;;;;37.17;27.40;;;12.00;1.00;;;;;;5046052;28;20472;-69
2024/03/13 08:20:51;;;;;;;35.67;26.93;;;12.10;1.00;;;;;;5058222;28;20459;-70
2024/03/13 08:23:19;;;;;;;37.83;25.77;;;12.30;1.00;;;;;;5066525;27;20465;-72
2024/03/13 08:25:47;;;;;;;39.13;26.60;;;12.40;1.00;;;;;;5066252;27;20538;-71
2024/03/13 08:28:14;;;;;;;32.37;24.57;;;12.50;1.00;;;;;;5059030;28;20538;-72
2024/03/13 08:30:42;;;;;;;34.70;27.23;;;12.50;1.00;;;;;;5061707;28;20971;-71
2024/03/13 08:33:09;;;;;;;44.10;32.60;;;12.70;1.00;;;;;;5063997;28;23910;-71
2024/03/13 08:35:41;;;;;;;35.73;26.50;;;12.80;1.00;;;;;;5060448;28;20479;-73
2024/03/13 08:38:08;;;;;;;43.87;31.50;;;12.90;1.00;;;;;;5063287;28;20499;-72
2024/03/13 08:40:35;;;;;;;31.63;25.40;;;13.00;1.00;;;;;;5051724;28;20590;-72
2024/03/13 08:43:02;;;;;;;43.70;31.13;;;13.00;1.00;;;;;;5070317;27;21003;-74
2024/03/13 08:45:29;;;;;;;38.93;26.57;;;12.90;1.00;;;;;;5058736;27;20588;-73
2024/03/13 08:47:56;;;;;;;34.17;23.73;;;12.90;1.00;;;;;;5073389;27;20552;-73
2024/03/13 08:50:23;;;;;;;32.40;24.30;;;13.10;1.00;;;;;;5073109;27;21230;-72
2024/03/13 08:52:50;;;;;;;33.43;24.53;;;13.10;1.00;;;;;;5071248;27;21056;-73
2024/03/13 08:55:18;;;;;;;34.13;24.50;;;13.10;1.00;;;;;;5069217;27;20570;-73
2024/03/13 08:57:45;;;;;;;25.90;21.20;;;13.40;1.00;;;;;;5069964;27;20886;-72
2024/03/13 09:00:13;;;;;;;28.13;21.60;;;13.60;1.00;;;;;;5069947;27;20471;-73
2024/03/13 09:02:40;;;;;;;29.00;22.70;;;13.80;1.00;;;;;;5072223;27;20461;-71
2024/03/13 09:05:08;;;;;;;28.47;22.40;;;13.80;1.00;;;;;;5070044;27;20474;-71
2024/03/13 09:07:35;;;;;;;28.47;23.00;;;14.00;1.00;;;;;;5056157;28;20457;-73
2024/03/13 09:10:02;;;;;;;27.10;21.03;;;14.50;1.00;;;;;;5051709;28;21964;-73
2024/03/13 09:12:30;;;;;;;25.43;20.17;;;14.80;1.00;;;;;;5068039;28;20492;-74
2024/03/13 09:14:57;;;;;;;27.50;21.50;;;15.60;1.00;;;;;;5066586;28;20589;-73
2024/03/13 09:17:25;;;;;;;26.67;21.73;;;16.30;1.00;;;;;;5072679;27;20469;-71
2024/03/13 09:19:52;;;;;;;26.80;19.80;;;17.30;1.00;;;;;;5091025;27;20466;-73
2024/03/13 09:22:20;;;;;;;22.37;19.23;;;18.10;1.00;;;;;;5057630;28;20453;-73
2024/03/13 09:24:47;;;;;;;27.10;22.07;;;18.80;1.00;;;;;;5055041;28;21202;-73
2024/03/13 09:27:14;;;;;;;27.23;22.50;;;19.10;1.00;;;;;;5056527;28;20465;-73
2024/03/13 09:29:41;;;;;;;21.50;19.17;;;20.10;1.00;;;;;;5066037;28;21345;-72
2024/03/13 09:32:09;;;;;;;26.80;20.40;;;21.10;1.00;;;;;;5067351;28;20440;-74
2024/03/13 09:34:37;;;;;;;22.97;18.53;;;21.70;1.00;;;;;;5066206;27;20513;-74
2024/03/13 09:37:05;;;;;;;26.30;20.67;;;22.50;1.00;;;;;;5058311;28;20966;-71
2024/03/13 09:39:32;;;;;;;23.60;18.73;;;23.20;1.00;;;;;;5068625;27;20461;-72
2024/03/13 09:42:00;;;;;;;19.27;16.90;;;23.10;1.00;;;;;;5063926;28;20465;-74
2024/03/13 09:44:29;;;;;;;21.50;19.10;;;22.40;1.00;;;;;;5062353;28;20569;-75
2024/03/13 09:46:58;;;;;;;20.33;17.60;;;21.00;1.00;;;;;;5068224;27;21075;-73
2024/03/13 09:49:25;;;;;;;21.80;17.33;;;21.10;1.00;;;;;;5060523;28;22236;-73
2024/03/13 09:51:53;;;;;;;19.83;17.80;;;21.60;1.00;;;;;;5053570;28;20445;-76
2024/03/13 09:54:20;;;;;;;19.60;16.73;;;22.40;1.00;;;;;;5064408;28;20483;-75
2024/03/13 09:56:48;;;;;;;20.70;16.17;;;22.90;1.00;;;;;;5056709;28;20457;-76
2024/03/13 09:59:16;;;;;;;18.07;16.17;;;22.80;1.00;;;;;;5055732;27;20460;-75
2024/03/13 10:01:43;;;;;;;19.00;17.00;;;22.20;1.00;;;;;;5060327;27;20453;-75
2024/03/13 10:04:12;;;;;;;21.77;16.23;;;22.30;1.00;;;;;;5052019;28;20504;-76
2024/03/13 10:06:40;;;;;;;19.93;17.00;;;23.30;1.00;;;;;;5053341;28;20486;-77
2024/03/13 10:09:12;;;;;;;18.43;16.43;;;24.00;1.00;;;;;;5040840;28;20649;-77
2024/03/13 10:11:42;;;;;;;19.17;16.73;;;23.20;1.00;;;;;;5054438;28;20468;-77
2024/03/13 10:14:11;;;;;;;21.43;17.43;;;21.70;1.00;;;;;;5056385;28;20453;-76
2024/03/13 10:16:38;;;;;;;20.53;17.13;;;20.80;1.00;;;;;;5055785;28;20474;-75
2024/03/13 10:19:06;;;;;;;19.50;17.50;;;20.70;1.00;;;;;;5053120;28;20457;-76
2024/03/13 10:21:33;;;;;;;25.97;19.47;;;20.50;1.00;;;;;;5077862;28;20788;-77
2024/03/13 10:24:04;;;;;;;22.70;18.77;;;21.00;1.00;;;;;;5075106;28;20471;-77
2024/03/13 10:26:34;;;;;;;20.23;17.63;;;21.70;1.00;;;;;;5071085;28;20464;-76
2024/03/13 10:29:02;;;;;;;22.00;19.63;;;22.30;1.00;;;;;;5077459;28;20868;-77
2024/03/13 10:31:29;;;;;;;19.60;17.50;;;22.30;1.00;;;;;;5076014;28;20453;-76
2024/03/13 10:33:57;;;;;;;21.33;18.47;;;22.70;1.00;;;;;;5064367;28;20843;-74
2024/03/13 10:36:24;;;;;;;24.90;20.33;;;22.10;1.00;;;;;;5051063;28;20466;-75
2024/03/13 10:38:53;;;;;;;20.00;17.90;;;22.40;1.00;;;;;;5056040;28;20609;-73
2024/03/13 10:41:20;;;;;;;20.10;18.00;;;23.60;1.00;;;;;;5071412;27;20832;-73
2024/03/13 10:43:47;;;;;;;20.20;17.00;;;24.50;1.00;;;;;;5069740;28;20623;-73
2024/03/13 10:46:15;;;;;;;19.03;16.90;;;25.40;1.00;;;;;;5065381;27;20454;-72
2024/03/13 10:48:43;;;;;;;21.57;19.30;;;26.20;1.00;;;;;;5060209;28;20471;-72
2024/03/13 10:51:12;;;;;;;19.13;17.03;;;26.20;1.00;;;;;;5084462;27;20532;-75
2024/03/13 10:53:39;;;;;;;17.13;15.40;;;26.20;1.00;;;;;;5056752;28;20474;-74
2024/03/13 10:56:11;;;;;;;19.90;17.90;;;25.90;1.00;;;;;;5057861;27;25406;-73
2024/03/13 10:58:38;;;;;;;18.33;16.30;;;25.90;1.00;;;;;;5057143;28;20947;-71
2024/03/13 11:01:05;;;;;;;24.47;17.03;;;25.70;1.00;;;;;;5064986;28;20646;-71
2024/03/13 11:03:32;;;;;;;17.57;15.70;;;24.60;1.00;;;;;;5051548;28;20477;-73
2024/03/13 11:06:00;;;;;;;19.17;15.80;;;24.00;1.00;;;;;;5053128;28;20471;-71
2024/03/13 11:08:28;;;;;;;19.73;16.70;;;23.70;1.00;;;;;;5061612;28;20472;-72
2024/03/13 11:10:56;;;;;;;17.13;15.43;;;24.60;1.00;;;;;;5048247;28;20977;-73
2024/03/13 11:13:24;;;;;;;17.73;15.83;;;24.70;1.00;;;;;;5052795;28;20556;-73
2024/03/13 11:15:53;;;;;;;16.40;14.70;;;25.30;1.00;;;;;;5055603;28;20584;-72
2024/03/13 11:18:21;;;;;;;16.90;15.27;;;25.80;1.00;;;;;;5059013;28;20468;-72
2024/03/13 11:20:50;;;;;;;18.60;16.50;;;25.50;1.00;;;;;;5060514;28;20591;-72
2024/03/13 11:23:19;;;;;;;19.50;17.50;;;24.40;1.00;;;;;;5071814;27;20465;-73
2024/03/13 11:25:47;;;;;;;17.33;15.47;;;23.10;1.00;;;;;;5068405;28;20473;-73
2024/03/13 11:28:15;;;;;;;18.90;16.87;;;22.60;1.00;;;;;;5047422;28;20483;-73
2024/03/13 11:30:42;;;;;;;17.60;15.90;;;23.50;1.00;;;;;;5062406;28;21037;-72
2024/03/13 11:33:09;;;;;;;17.10;15.50;;;24.30;1.00;;;;;;5060157;28;20470;-72
2024/03/13 11:35:36;;;;;;;15.70;14.10;;;23.70;1.00;;;;;;5061398;28;20454;-72
2024/03/13 11:38:03;;;;;;;18.70;14.70;;;23.50;1.00;;;;;;5065255;27;20954;-72
2024/03/13 11:40:33;;;;;;;16.13;14.43;;;23.50;1.00;;;;;;5074311;27;20571;-72
2024/03/13 11:43:03;;;;;;;14.03;12.53;;;22.60;1.00;;;;;;5055240;28;20473;-74
2024/03/13 11:45:30;;;;;;;15.17;13.67;;;21.50;1.00;;;;;;5061996;28;20466;-74
2024/03/13 11:47:57;;;;;;;15.63;14.13;;;22.40;1.00;;;;;;5069206;28;21047;-72
2024/03/13 11:50:24;;;;;;;17.00;14.90;;;22.10;1.00;;;;;;5048559;28;20450;-72
2024/03/13 11:53:12;;;;;;;16.37;14.53;;;20.70;1.00;;;;;;5062074;28;20462;-74
2024/03/13 11:55:41;;;;;;;19.23;16.53;;;19.10;1.00;;;;;;5079115;28;20473;-72
2024/03/13 11:58:18;;;;;;;16.87;14.50;;;18.20;1.00;;;;;;5068506;27;20481;-72
2024/03/13 12:00:46;;;;;;;17.50;15.63;;;18.00;1.00;;;;;;5064316;28;20461;-73
2024/03/13 12:03:15;;;;;;;16.70;14.90;;;17.70;1.00;;;;;;5052620;28;20562;-74
2024/03/13 12:05:42;;;;;;;16.50;14.80;;;17.40;1.00;;;;;;5060484;27;20451;-73
2024/03/13 12:08:12;;;;;;;15.40;13.90;;;17.40;1.00;;;;;;5064720;28;20479;-73
2024/03/13 12:10:39;;;;;;;16.20;14.60;;;18.30;1.00;;;;;;5070318;28;20472;-76
2024/03/13 12:13:07;;;;;;;16.73;15.03;;;19.60;1.00;;;;;;5064986;28;20548;-75
2024/03/13 12:15:36;;;;;;;17.07;15.33;;;20.80;1.00;;;;;;5065689;28;20474;-74
2024/03/13 12:18:05;;;;;;;18.50;14.97;;;22.40;1.00;;;;;;5068354;27;20532;-76
2024/03/13 12:20:36;;;;;;;18.23;16.37;;;22.60;1.00;;;;;;5062834;28;20976;-74
2024/03/13 12:23:03;;;;;;;14.97;13.57;;;22.00;1.00;;;;;;5082517;28;20476;-76
2024/03/13 12:25:30;;;;;;;14.97;13.57;;;21.20;1.00;;;;;;5067624;28;20456;-76
2024/03/13 12:27:57;;;;;;;16.77;15.17;;;20.90;1.00;;;;;;5068377;28;20479;-76
2024/03/13 12:30:25;;;;;;;15.80;14.33;;;21.80;1.00;;;;;;5069159;28;20459;-75
2024/03/13 12:32:53;;;;;;;15.90;14.50;;;23.70;1.00;;;;;;5069563;27;20491;-76
2024/03/13 12:35:21;;;;;;;14.10;12.60;;;25.60;1.00;;;;;;5068343;28;20581;-75
2024/03/13 12:37:49;;;;;;;14.50;13.20;;;26.90;1.00;;;;;;5067495;28;20474;-75
2024/03/13 12:40:16;;;;;;;15.10;13.90;;;27.20;1.00;;;;;;5066867;28;21475;-76
2024/03/13 12:42:44;;;;;;;14.40;13.20;;;26.80;1.00;;;;;;5066620;28;20914;-73
2024/03/13 12:45:11;;;;;;;16.47;14.97;;;27.00;1.00;;;;;;5062139;28;20471;-75
2024/03/13 12:47:38;;;;;;;15.20;13.80;;;27.00;1.00;;;;;;5048559;28;20460;-73
2024/03/13 12:50:09;;;;;;;18.10;16.10;;;27.00;1.00;;;;;;5060185;27;20447;-73
2024/03/13 12:52:36;;;;;;;18.13;16.33;;;26.90;1.00;;;;;;5069711;28;20503;-76
2024/03/13 12:55:04;;;;;;;15.50;14.10;;;26.20;1.00;;;;;;5051926;28;20547;-73
2024/03/13 12:57:36;;;;;;;15.63;14.13;;;25.30;1.00;;;;;;5050033;28;20493;-72